sensor_id;sensor_type;location;lat;lon;timestamp;temperature;humidity
10453;DHT22;5274;51.992;8.518;2022-08-21T00:01:53;13.80;99.90
10453;DHT22;5274;51.992;8.518;2022-08-21T00:04:19;13.90;99.90
10453;DHT22;5274;51.992;8.518;2022-08-21T00:06:44;13.80;99.90
10453;DHT22;5274;51.992;8.518;2022-08-21T00:09:10;13.90;99.90
10453;DHT22;5274;51.992;8.518;2022-08-21T00:11:37;13.90;99.90
10453;DHT22;5274;51.992;8.518;2022-08-21T00:14:05;13.90;99.90
10453;DHT22;5274;51.992;8.518;2022-08-21T00:16:31;13.90;99.90
10453;DHT22;5274;51.992;8.518;2022-08-21T00:18:57;13.90;99.90
10453;DHT22;5274;51.992;8.518;2022-08-21T00:21:23;14.00;99.90
10453;DHT22;5274;51.992;8.518;2022-08-21T00:23:48;14.10;99.90
10453;DHT22;5274;51.992;8.518;2022-08-21T00:26:14;14.00;99.90
10453;DHT22;5274;51.992;8.518;2022-08-21T00:28:39;14.10;99.90
10453;DHT22;5274;51.992;8.518;2022-08-21T00:31:05;14.00;99.90
10453;DHT22;5274;51.992;8.518;2022-08-21T00:33:31;14.10;99.90
10453;DHT22;5274;51.992;8.518;2022-08-21T00:35:57;14.10;99.90
10453;DHT22;5274;51.992;8.518;2022-08-21T00:38:22;14.10;99.90
10453;DHT22;5274;51.992;8.518;2022-08-21T00:40:54;14.20;99.90
10453;DHT22;5274;51.992;8.518;2022-08-21T00:43:29;14.30;99.90
10453;DHT22;5274;51.992;8.518;2022-08-21T00:45:55;14.30;99.90
10453;DHT22;5274;51.992;8.518;2022-08-21T00:48:22;14.30;99.90
10453;DHT22;5274;51.992;8.518;2022-08-21T00:50:56;14.50;99.90
10453;DHT22;5274;51.992;8.518;2022-08-21T00:53:23;14.50;99.90
10453;DHT22;5274;51.992;8.518;2022-08-21T00:55:50;14.80;99.90
10453;DHT22;5274;51.992;8.518;2022-08-21T00:58:16;14.80;99.90
10453;DHT22;5274;51.992;8.518;2022-08-21T01:00:45;14.80;99.90
10453;DHT22;5274;51.992;8.518;2022-08-21T01:03:15;14.80;99.90
10453;DHT22;5274;51.992;8.518;2022-08-21T01:05:41;14.80;99.90
10453;DHT22;5274;51.992;8.518;2022-08-21T01:08:08;14.70;99.90
10453;DHT22;5274;51.992;8.518;2022-08-21T01:10:36;14.60;99.90
10453;DHT22;5274;51.992;8.518;2022-08-21T01:13:03;14.50;99.90
10453;DHT22;5274;51.992;8.518;2022-08-21T01:15:32;14.40;99.90
10453;DHT22;5274;51.992;8.518;2022-08-21T01:17:58;14.40;99.90
10453;DHT22;5274;51.992;8.518;2022-08-21T01:20:25;14.50;99.90
10453;DHT22;5274;51.992;8.518;2022-08-21T01:22:51;14.40;99.90
10453;DHT22;5274;51.992;8.518;2022-08-21T01:25:17;14.40;99.90
10453;DHT22;5274;51.992;8.518;2022-08-21T01:27:45;14.30;99.90
10453;DHT22;5274;51.992;8.518;2022-08-21T01:30:14;14.30;99.90
10453;DHT22;5274;51.992;8.518;2022-08-21T01:32:41;14.20;99.90
10453;DHT22;5274;51.992;8.518;2022-08-21T01:35:08;14.30;99.90
10453;DHT22;5274;51.992;8.518;2022-08-21T01:37:34;14.30;99.90
10453;DHT22;5274;51.992;8.518;2022-08-21T01:40:00;14.30;99.90
10453;DHT22;5274;51.992;8.518;2022-08-21T01:42:26;14.40;99.90
10453;DHT22;5274;51.992;8.518;2022-08-21T01:44:51;14.30;99.90
10453;DHT22;5274;51.992;8.518;2022-08-21T01:47:17;14.30;99.90
10453;DHT22;5274;51.992;8.518;2022-08-21T01:49:44;14.40;99.90
10453;DHT22;5274;51.992;8.518;2022-08-21T01:52:10;14.30;99.90
10453;DHT22;5274;51.992;8.518;2022-08-21T01:54:37;14.30;99.90
10453;DHT22;5274;51.992;8.518;2022-08-21T01:57:03;14.30;99.90
10453;DHT22;5274;51.992;8.518;2022-08-21T01:59:29;14.30;99.90
10453;DHT22;5274;51.992;8.518;2022-08-21T02:01:54;14.30;99.90
10453;DHT22;5274;51.992;8.518;2022-08-21T02:04:21;14.30;99.90
10453;DHT22;5274;51.992;8.518;2022-08-21T02:06:47;14.30;99.90
10453;DHT22;5274;51.992;8.518;2022-08-21T02:09:13;14.30;99.90
10453;DHT22;5274;51.992;8.518;2022-08-21T02:11:40;14.30;99.90
10453;DHT22;5274;51.992;8.518;2022-08-21T02:14:07;14.30;99.90
10453;DHT22;5274;51.992;8.518;2022-08-21T02:16:33;14.40;99.90
10453;DHT22;5274;51.992;8.518;2022-08-21T02:18:58;14.40;99.90
10453;DHT22;5274;51.992;8.518;2022-08-21T02:21:24;14.40;99.90
10453;DHT22;5274;51.992;8.518;2022-08-21T02:23:49;14.40;99.90
10453;DHT22;5274;51.992;8.518;2022-08-21T02:26:15;14.50;99.90
10453;DHT22;5274;51.992;8.518;2022-08-21T02:28:40;14.50;99.90
10453;DHT22;5274;51.992;8.518;2022-08-21T02:31:06;14.50;99.90
10453;DHT22;5274;51.992;8.518;2022-08-21T02:33:32;14.40;99.90
10453;DHT22;5274;51.992;8.518;2022-08-21T02:35:59;14.40;99.90
10453;DHT22;5274;51.992;8.518;2022-08-21T02:38:28;14.40;99.90
10453;DHT22;5274;51.992;8.518;2022-08-21T02:40:55;14.30;99.90
10453;DHT22;5274;51.992;8.518;2022-08-21T02:43:22;14.30;99.90
10453;DHT22;5274;51.992;8.518;2022-08-21T02:45:49;14.30;99.90
10453;DHT22;5274;51.992;8.518;2022-08-21T02:48:18;14.30;99.90
10453;DHT22;5274;51.992;8.518;2022-08-21T02:50:52;14.30;99.90
10453;DHT22;5274;51.992;8.518;2022-08-21T02:53:18;14.20;99.90
10453;DHT22;5274;51.992;8.518;2022-08-21T02:55:45;14.20;99.90
10453;DHT22;5274;51.992;8.518;2022-08-21T02:58:13;14.30;99.90
10453;DHT22;5274;51.992;8.518;2022-08-21T03:00:40;14.30;99.90
10453;DHT22;5274;51.992;8.518;2022-08-21T03:03:06;14.40;99.90
10453;DHT22;5274;51.992;8.518;2022-08-21T03:05:33;14.40;99.90
10453;DHT22;5274;51.992;8.518;2022-08-21T03:08:01;14.40;99.90
10453;DHT22;5274;51.992;8.518;2022-08-21T03:10:27;14.40;99.90
10453;DHT22;5274;51.992;8.518;2022-08-21T03:12:53;14.50;99.90
10453;DHT22;5274;51.992;8.518;2022-08-21T03:15:21;14.50;99.90
10453;DHT22;5274;51.992;8.518;2022-08-21T03:17:49;14.50;99.90
10453;DHT22;5274;51.992;8.518;2022-08-21T03:20:16;14.50;99.90
10453;DHT22;5274;51.992;8.518;2022-08-21T03:22:42;14.50;99.90
10453;DHT22;5274;51.992;8.518;2022-08-21T03:25:08;14.50;99.90
10453;DHT22;5274;51.992;8.518;2022-08-21T03:27:35;14.50;99.90
10453;DHT22;5274;51.992;8.518;2022-08-21T03:30:02;14.60;99.90
10453;DHT22;5274;51.992;8.518;2022-08-21T03:32:29;14.60;99.90
10453;DHT22;5274;51.992;8.518;2022-08-21T03:34:57;14.60;99.90
10453;DHT22;5274;51.992;8.518;2022-08-21T03:37:22;14.60;99.90
10453;DHT22;5274;51.992;8.518;2022-08-21T03:39:49;14.50;99.90
10453;DHT22;5274;51.992;8.518;2022-08-21T03:42:15;14.50;99.90
10453;DHT22;5274;51.992;8.518;2022-08-21T03:44:40;14.50;99.90
10453;DHT22;5274;51.992;8.518;2022-08-21T03:47:06;14.50;99.90
10453;DHT22;5274;51.992;8.518;2022-08-21T03:49:32;14.50;99.90
10453;DHT22;5274;51.992;8.518;2022-08-21T03:51:58;14.50;99.90
10453;DHT22;5274;51.992;8.518;2022-08-21T03:54:24;14.50;99.90
10453;DHT22;5274;51.992;8.518;2022-08-21T03:56:50;14.50;99.90
10453;DHT22;5274;51.992;8.518;2022-08-21T03:59:16;14.40;99.90
10453;DHT22;5274;51.992;8.518;2022-08-21T04:01:58;14.40;99.90
10453;DHT22;5274;51.992;8.518;2022-08-21T04:04:25;14.40;99.90
10453;DHT22;5274;51.992;8.518;2022-08-21T04:06:51;14.40;99.90
10453;DHT22;5274;51.992;8.518;2022-08-21T04:09:18;14.20;99.90
10453;DHT22;5274;51.992;8.518;2022-08-21T04:11:44;14.20;99.90
10453;DHT22;5274;51.992;8.518;2022-08-21T04:14:10;14.10;99.90
10453;DHT22;5274;51.992;8.518;2022-08-21T04:16:37;14.00;99.90
10453;DHT22;5274;51.992;8.518;2022-08-21T04:19:02;14.00;99.90
10453;DHT22;5274;51.992;8.518;2022-08-21T04:21:28;14.00;99.90
10453;DHT22;5274;51.992;8.518;2022-08-21T04:23:54;13.90;99.90
10453;DHT22;5274;51.992;8.518;2022-08-21T04:26:20;13.90;99.90
10453;DHT22;5274;51.992;8.518;2022-08-21T04:28:46;13.90;99.90
10453;DHT22;5274;51.992;8.518;2022-08-21T04:31:11;13.80;99.90
10453;DHT22;5274;51.992;8.518;2022-08-21T04:33:37;13.80;99.90
10453;DHT22;5274;51.992;8.518;2022-08-21T04:36:03;13.80;99.90
10453;DHT22;5274;51.992;8.518;2022-08-21T04:38:29;13.80;99.90
10453;DHT22;5274;51.992;8.518;2022-08-21T04:40:56;13.90;99.90
10453;DHT22;5274;51.992;8.518;2022-08-21T04:43:22;13.80;99.90
10453;DHT22;5274;51.992;8.518;2022-08-21T04:45:49;13.80;99.90
10453;DHT22;5274;51.992;8.518;2022-08-21T04:48:16;13.80;99.90
10453;DHT22;5274;51.992;8.518;2022-08-21T04:50:50;13.70;99.90
10453;DHT22;5274;51.992;8.518;2022-08-21T04:55:48;13.80;99.90
10453;DHT22;5274;51.992;8.518;2022-08-21T04:58:17;13.80;99.90
10453;DHT22;5274;51.992;8.518;2022-08-21T05:00:44;13.70;99.90
10453;DHT22;5274;51.992;8.518;2022-08-21T05:03:11;13.70;99.90
10453;DHT22;5274;51.992;8.518;2022-08-21T05:05:38;13.70;99.90
10453;DHT22;5274;51.992;8.518;2022-08-21T05:08:04;13.90;99.90
10453;DHT22;5274;51.992;8.518;2022-08-21T05:10:31;14.00;99.90
10453;DHT22;5274;51.992;8.518;2022-08-21T05:12:57;14.10;99.90
10453;DHT22;5274;51.992;8.518;2022-08-21T05:15:23;14.10;99.90
10453;DHT22;5274;51.992;8.518;2022-08-21T05:17:49;14.20;99.90
10453;DHT22;5274;51.992;8.518;2022-08-21T05:20:16;14.20;99.90
10453;DHT22;5274;51.992;8.518;2022-08-21T05:22:41;14.30;99.90
10453;DHT22;5274;51.992;8.518;2022-08-21T05:25:08;14.30;99.90
10453;DHT22;5274;51.992;8.518;2022-08-21T05:27:34;14.40;99.90
10453;DHT22;5274;51.992;8.518;2022-08-21T05:30:00;14.40;99.90
10453;DHT22;5274;51.992;8.518;2022-08-21T05:32:25;14.60;99.90
10453;DHT22;5274;51.992;8.518;2022-08-21T05:34:53;14.80;99.90
10453;DHT22;5274;51.992;8.518;2022-08-21T05:37:18;14.80;99.90
10453;DHT22;5274;51.992;8.518;2022-08-21T05:39:44;14.80;99.90
10453;DHT22;5274;51.992;8.518;2022-08-21T05:42:10;14.80;99.90
10453;DHT22;5274;51.992;8.518;2022-08-21T05:44:35;15.00;99.90
10453;DHT22;5274;51.992;8.518;2022-08-21T05:47:08;14.90;99.90
10453;DHT22;5274;51.992;8.518;2022-08-21T05:49:34;15.10;99.90
10453;DHT22;5274;51.992;8.518;2022-08-21T05:52:00;15.20;99.90
10453;DHT22;5274;51.992;8.518;2022-08-21T05:54:27;15.30;99.90
10453;DHT22;5274;51.992;8.518;2022-08-21T05:56:52;15.20;99.90
10453;DHT22;5274;51.992;8.518;2022-08-21T05:59:18;15.40;99.90
10453;DHT22;5274;51.992;8.518;2022-08-21T06:01:44;15.50;99.90
10453;DHT22;5274;51.992;8.518;2022-08-21T06:04:11;15.70;99.90
10453;DHT22;5274;51.992;8.518;2022-08-21T06:06:36;15.70;99.90
10453;DHT22;5274;51.992;8.518;2022-08-21T06:09:03;15.60;99.90
10453;DHT22;5274;51.992;8.518;2022-08-21T06:11:29;15.70;99.90
10453;DHT22;5274;51.992;8.518;2022-08-21T06:13:54;15.70;99.90
10453;DHT22;5274;51.992;8.518;2022-08-21T06:16:20;15.90;99.90
10453;DHT22;5274;51.992;8.518;2022-08-21T06:18:45;15.80;99.90
10453;DHT22;5274;51.992;8.518;2022-08-21T06:21:11;15.90;99.90
10453;DHT22;5274;51.992;8.518;2022-08-21T06:23:38;16.10;99.90
10453;DHT22;5274;51.992;8.518;2022-08-21T06:26:05;16.10;99.90
10453;DHT22;5274;51.992;8.518;2022-08-21T06:28:32;16.20;99.90
10453;DHT22;5274;51.992;8.518;2022-08-21T06:30:58;16.40;99.90
10453;DHT22;5274;51.992;8.518;2022-08-21T06:33:23;16.40;99.90
10453;DHT22;5274;51.992;8.518;2022-08-21T06:35:49;16.40;99.90
10453;DHT22;5274;51.992;8.518;2022-08-21T06:38:15;16.50;99.90
10453;DHT22;5274;51.992;8.518;2022-08-21T06:40:41;16.40;99.90
10453;DHT22;5274;51.992;8.518;2022-08-21T06:43:13;16.50;99.90
10453;DHT22;5274;51.992;8.518;2022-08-21T06:45:39;16.70;99.90
10453;DHT22;5274;51.992;8.518;2022-08-21T06:48:05;16.70;99.90
10453;DHT22;5274;51.992;8.518;2022-08-21T06:50:32;16.80;99.90
10453;DHT22;5274;51.992;8.518;2022-08-21T06:52:59;16.80;99.90
10453;DHT22;5274;51.992;8.518;2022-08-21T06:55:25;16.90;99.90
10453;DHT22;5274;51.992;8.518;2022-08-21T06:57:50;17.10;99.90
10453;DHT22;5274;51.992;8.518;2022-08-21T07:00:16;17.20;99.90
10453;DHT22;5274;51.992;8.518;2022-08-21T07:02:41;17.30;99.90
10453;DHT22;5274;51.992;8.518;2022-08-21T07:05:07;17.20;99.90
10453;DHT22;5274;51.992;8.518;2022-08-21T07:07:33;17.10;99.90
10453;DHT22;5274;51.992;8.518;2022-08-21T07:09:58;17.00;99.90
10453;DHT22;5274;51.992;8.518;2022-08-21T07:12:24;17.00;99.90
10453;DHT22;5274;51.992;8.518;2022-08-21T07:14:51;16.90;99.90
10453;DHT22;5274;51.992;8.518;2022-08-21T07:17:17;16.90;99.90
10453;DHT22;5274;51.992;8.518;2022-08-21T07:19:42;17.00;99.90
10453;DHT22;5274;51.992;8.518;2022-08-21T07:22:08;17.00;99.90
10453;DHT22;5274;51.992;8.518;2022-08-21T07:24:33;17.00;99.90
10453;DHT22;5274;51.992;8.518;2022-08-21T07:26:59;17.10;99.90
10453;DHT22;5274;51.992;8.518;2022-08-21T07:29:24;17.10;99.90
10453;DHT22;5274;51.992;8.518;2022-08-21T07:31:50;17.20;99.90
10453;DHT22;5274;51.992;8.518;2022-08-21T07:34:15;17.20;99.90
10453;DHT22;5274;51.992;8.518;2022-08-21T07:36:41;17.20;99.90
10453;DHT22;5274;51.992;8.518;2022-08-21T07:39:07;17.30;99.90
10453;DHT22;5274;51.992;8.518;2022-08-21T07:41:33;17.30;99.90
10453;DHT22;5274;51.992;8.518;2022-08-21T07:44:00;17.30;99.90
10453;DHT22;5274;51.992;8.518;2022-08-21T07:46:26;17.40;99.90
10453;DHT22;5274;51.992;8.518;2022-08-21T07:48:52;17.40;99.90
10453;DHT22;5274;51.992;8.518;2022-08-21T07:51:22;17.50;99.90
10453;DHT22;5274;51.992;8.518;2022-08-21T07:53:52;17.60;99.90
10453;DHT22;5274;51.992;8.518;2022-08-21T07:56:19;17.60;93.90
10453;DHT22;5274;51.992;8.518;2022-08-21T07:58:45;17.70;91.50
10453;DHT22;5274;51.992;8.518;2022-08-21T08:01:10;17.70;99.10
10453;DHT22;5274;51.992;8.518;2022-08-21T08:03:36;17.80;93.10
10453;DHT22;5274;51.992;8.518;2022-08-21T08:06:02;17.80;50.80
10453;DHT22;5274;51.992;8.518;2022-08-21T08:08:30;17.90;58.50
10453;DHT22;5274;51.992;8.518;2022-08-21T08:10:57;17.90;24.50
10453;DHT22;5274;51.992;8.518;2022-08-21T08:13:23;17.90;24.00
10453;DHT22;5274;51.992;8.518;2022-08-21T08:15:49;18.00;1.00
10453;DHT22;5274;51.992;8.518;2022-08-21T08:18:15;18.10;24.00
10453;DHT22;5274;51.992;8.518;2022-08-21T08:20:41;18.20;1.00
10453;DHT22;5274;51.992;8.518;2022-08-21T08:23:09;18.30;1.00
10453;DHT22;5274;51.992;8.518;2022-08-21T08:25:35;18.50;1.00
10453;DHT22;5274;51.992;8.518;2022-08-21T08:28:00;18.70;1.00
10453;DHT22;5274;51.992;8.518;2022-08-21T08:30:26;18.70;1.00
10453;DHT22;5274;51.992;8.518;2022-08-21T08:32:51;18.60;1.00
10453;DHT22;5274;51.992;8.518;2022-08-21T08:35:17;18.70;1.00
10453;DHT22;5274;51.992;8.518;2022-08-21T08:37:43;18.80;1.00
10453;DHT22;5274;51.992;8.518;2022-08-21T08:40:14;18.80;1.00
10453;DHT22;5274;51.992;8.518;2022-08-21T08:42:40;18.90;1.00
10453;DHT22;5274;51.992;8.518;2022-08-21T08:45:09;18.90;1.00
10453;DHT22;5274;51.992;8.518;2022-08-21T08:47:38;17.70;1.00
10453;DHT22;5274;51.992;8.518;2022-08-21T08:50:09;19.00;1.00
10453;DHT22;5274;51.992;8.518;2022-08-21T08:53:06;19.10;1.00
10453;DHT22;5274;51.992;8.518;2022-08-21T08:55:36;19.20;1.00
10453;DHT22;5274;51.992;8.518;2022-08-21T08:58:03;19.30;1.00
10453;DHT22;5274;51.992;8.518;2022-08-21T09:00:29;19.40;1.00
10453;DHT22;5274;51.992;8.518;2022-08-21T09:02:57;19.40;1.00
10453;DHT22;5274;51.992;8.518;2022-08-21T09:09:00;19.60;1.00
10453;DHT22;5274;51.992;8.518;2022-08-21T09:17:13;19.90;1.00
10453;DHT22;5274;51.992;8.518;2022-08-21T09:20:11;19.90;1.00
10453;DHT22;5274;51.992;8.518;2022-08-21T09:23:03;20.10;1.00
10453;DHT22;5274;51.992;8.518;2022-08-21T09:25:50;20.20;1.00
10453;DHT22;5274;51.992;8.518;2022-08-21T09:28:18;20.30;1.00
10453;DHT22;5274;51.992;8.518;2022-08-21T09:30:43;20.40;1.00
10453;DHT22;5274;51.992;8.518;2022-08-21T09:33:11;20.60;1.00
10453;DHT22;5274;51.992;8.518;2022-08-21T09:35:51;20.60;1.00
10453;DHT22;5274;51.992;8.518;2022-08-21T09:38:51;20.70;1.00
10453;DHT22;5274;51.992;8.518;2022-08-21T09:41:29;20.90;1.00
10453;DHT22;5274;51.992;8.518;2022-08-21T09:43:55;21.00;1.00
10453;DHT22;5274;51.992;8.518;2022-08-21T09:46:23;21.20;1.00
10453;DHT22;5274;51.992;8.518;2022-08-21T09:48:52;21.20;1.00
10453;DHT22;5274;51.992;8.518;2022-08-21T09:51:22;21.10;1.00
10453;DHT22;5274;51.992;8.518;2022-08-21T09:53:52;21.10;1.00
10453;DHT22;5274;51.992;8.518;2022-08-21T09:56:29;21.20;1.00
10453;DHT22;5274;51.992;8.518;2022-08-21T09:59:18;21.30;1.00
10453;DHT22;5274;51.992;8.518;2022-08-21T10:01:50;21.70;1.00
10453;DHT22;5274;51.992;8.518;2022-08-21T10:04:24;21.80;1.00
10453;DHT22;5274;51.992;8.518;2022-08-21T10:06:50;21.60;1.00
10453;DHT22;5274;51.992;8.518;2022-08-21T10:09:19;21.70;1.00
10453;DHT22;5274;51.992;8.518;2022-08-21T10:12:00;21.70;1.00
10453;DHT22;5274;51.992;8.518;2022-08-21T10:14:44;21.70;1.00
10453;DHT22;5274;51.992;8.518;2022-08-21T10:17:20;22.00;1.00
10453;DHT22;5274;51.992;8.518;2022-08-21T10:20:10;22.30;1.00
10453;DHT22;5274;51.992;8.518;2022-08-21T10:23:00;22.20;1.00
10453;DHT22;5274;51.992;8.518;2022-08-21T10:25:47;22.30;1.00
10453;DHT22;5274;51.992;8.518;2022-08-21T10:28:34;21.00;1.00
10453;DHT22;5274;51.992;8.518;2022-08-21T10:31:21;22.20;1.00
10453;DHT22;5274;51.992;8.518;2022-08-21T10:36:43;22.40;1.00
10453;DHT22;5274;51.992;8.518;2022-08-21T10:42:17;23.00;99.90
10453;DHT22;5274;51.992;8.518;2022-08-21T10:45:02;23.20;99.90
10453;DHT22;5274;51.992;8.518;2022-08-21T10:47:45;23.00;99.90
10453;DHT22;5274;51.992;8.518;2022-08-21T10:50:35;22.90;99.90
10453;DHT22;5274;51.992;8.518;2022-08-21T10:53:41;23.10;99.90
10453;DHT22;5274;51.992;8.518;2022-08-21T10:56:19;23.20;99.90
10453;DHT22;5274;51.992;8.518;2022-08-21T11:01:50;23.40;99.90
10453;DHT22;5274;51.992;8.518;2022-08-21T11:04:48;23.10;99.90
10453;DHT22;5274;51.992;8.518;2022-08-21T11:07:34;23.10;99.90
10453;DHT22;5274;51.992;8.518;2022-08-21T11:10:23;23.30;99.90
10453;DHT22;5274;51.992;8.518;2022-08-21T11:18:47;24.30;99.90
10453;DHT22;5274;51.992;8.518;2022-08-21T11:24:27;24.10;99.90
10453;DHT22;5274;51.992;8.518;2022-08-21T11:27:17;24.20;99.90
10453;DHT22;5274;51.992;8.518;2022-08-21T11:29:47;24.30;99.90
10453;DHT22;5274;51.992;8.518;2022-08-21T11:38:20;25.00;99.90
10453;DHT22;5274;51.992;8.518;2022-08-21T11:43:39;29.20;99.90
10453;DHT22;5274;51.992;8.518;2022-08-21T11:46:19;27.60;99.90
10453;DHT22;5274;51.992;8.518;2022-08-21T11:48:56;27.40;99.90
10453;DHT22;5274;51.992;8.518;2022-08-21T11:54:28;30.20;99.90
10453;DHT22;5274;51.992;8.518;2022-08-21T11:57:05;31.80;99.90
10453;DHT22;5274;51.992;8.518;2022-08-21T12:02:29;35.00;99.90
10453;DHT22;5274;51.992;8.518;2022-08-21T12:05:02;36.60;99.90
10453;DHT22;5274;51.992;8.518;2022-08-21T12:07:41;37.90;99.90
10453;DHT22;5274;51.992;8.518;2022-08-21T12:10:34;37.50;99.90
10453;DHT22;5274;51.992;8.518;2022-08-21T12:13:08;37.20;99.90
10453;DHT22;5274;51.992;8.518;2022-08-21T12:15:36;38.70;99.90
10453;DHT22;5274;51.992;8.518;2022-08-21T12:18:22;39.00;99.90
10453;DHT22;5274;51.992;8.518;2022-08-21T12:21:02;40.80;99.90
10453;DHT22;5274;51.992;8.518;2022-08-21T12:24:19;43.70;99.90
10453;DHT22;5274;51.992;8.518;2022-08-21T12:26:23;45.40;99.90
10453;DHT22;5274;51.992;8.518;2022-08-21T12:28:49;45.40;99.90
10453;DHT22;5274;51.992;8.518;2022-08-21T12:31:20;45.40;99.90
10453;DHT22;5274;51.992;8.518;2022-08-21T12:33:53;46.30;99.90
10453;DHT22;5274;51.992;8.518;2022-08-21T12:36:23;46.60;99.90
10453;DHT22;5274;51.992;8.518;2022-08-21T12:39:04;44.10;99.90
10453;DHT22;5274;51.992;8.518;2022-08-21T12:41:42;44.00;99.90
10453;DHT22;5274;51.992;8.518;2022-08-21T12:44:14;41.30;99.90
10453;DHT22;5274;51.992;8.518;2022-08-21T12:46:47;41.30;99.90
10453;DHT22;5274;51.992;8.518;2022-08-21T12:49:28;43.20;99.90
10453;DHT22;5274;51.992;8.518;2022-08-21T12:54:42;42.30;99.90
10453;DHT22;5274;51.992;8.518;2022-08-21T12:57:16;40.30;99.90
10453;DHT22;5274;51.992;8.518;2022-08-21T12:59:43;41.30;99.90
10453;DHT22;5274;51.992;8.518;2022-08-21T13:02:20;42.80;99.90
10453;DHT22;5274;51.992;8.518;2022-08-21T13:04:47;38.90;99.90
10453;DHT22;5274;51.992;8.518;2022-08-21T13:07:21;41.10;99.90
10453;DHT22;5274;51.992;8.518;2022-08-21T13:09:52;43.70;99.90
10453;DHT22;5274;51.992;8.518;2022-08-21T13:12:20;42.50;99.90
10453;DHT22;5274;51.992;8.518;2022-08-21T13:14:46;43.30;99.90
10453;DHT22;5274;51.992;8.518;2022-08-21T13:17:19;42.00;99.90
10453;DHT22;5274;51.992;8.518;2022-08-21T13:20:06;41.50;99.90
10453;DHT22;5274;51.992;8.518;2022-08-21T13:22:41;41.00;99.90
10453;DHT22;5274;51.992;8.518;2022-08-21T13:25:10;38.50;99.90
10453;DHT22;5274;51.992;8.518;2022-08-21T13:27:36;38.00;99.90
10453;DHT22;5274;51.992;8.518;2022-08-21T13:30:18;37.90;99.90
10453;DHT22;5274;51.992;8.518;2022-08-21T13:32:46;37.00;99.90
10453;DHT22;5274;51.992;8.518;2022-08-21T13:35:21;37.00;99.90
10453;DHT22;5274;51.992;8.518;2022-08-21T13:37:48;35.60;99.90
10453;DHT22;5274;51.992;8.518;2022-08-21T13:40:41;35.60;99.90
10453;DHT22;5274;51.992;8.518;2022-08-21T13:43:17;36.20;99.90
10453;DHT22;5274;51.992;8.518;2022-08-21T13:45:49;37.40;99.90
10453;DHT22;5274;51.992;8.518;2022-08-21T13:48:15;37.30;99.90
10453;DHT22;5274;51.992;8.518;2022-08-21T13:50:41;39.50;99.90
10453;DHT22;5274;51.992;8.518;2022-08-21T13:53:21;40.20;99.90
10453;DHT22;5274;51.992;8.518;2022-08-21T13:55:47;42.80;99.90
10453;DHT22;5274;51.992;8.518;2022-08-21T13:58:25;43.10;99.90
10453;DHT22;5274;51.992;8.518;2022-08-21T14:00:51;41.50;99.90
10453;DHT22;5274;51.992;8.518;2022-08-21T14:03:45;37.20;99.90
10453;DHT22;5274;51.992;8.518;2022-08-21T14:06:14;35.90;99.90
10453;DHT22;5274;51.992;8.518;2022-08-21T14:08:41;35.00;99.90
10453;DHT22;5274;51.992;8.518;2022-08-21T14:11:12;35.50;99.90
10453;DHT22;5274;51.992;8.518;2022-08-21T14:13:44;36.40;99.90
10453;DHT22;5274;51.992;8.518;2022-08-21T14:21:25;36.20;99.90
10453;DHT22;5274;51.992;8.518;2022-08-21T14:24:13;35.70;99.90
10453;DHT22;5274;51.992;8.518;2022-08-21T14:27:03;37.30;99.90
10453;DHT22;5274;51.992;8.518;2022-08-21T14:29:38;38.90;99.90
10453;DHT22;5274;51.992;8.518;2022-08-21T14:32:14;37.80;99.90
10453;DHT22;5274;51.992;8.518;2022-08-21T14:34:40;38.50;99.90
10453;DHT22;5274;51.992;8.518;2022-08-21T14:37:05;35.60;99.90
10453;DHT22;5274;51.992;8.518;2022-08-21T14:39:31;35.00;99.90
10453;DHT22;5274;51.992;8.518;2022-08-21T14:41:57;36.40;99.90
10453;DHT22;5274;51.992;8.518;2022-08-21T14:44:24;36.40;99.90
10453;DHT22;5274;51.992;8.518;2022-08-21T14:46:49;37.90;99.90
10453;DHT22;5274;51.992;8.518;2022-08-21T14:49:15;37.00;99.90
10453;DHT22;5274;51.992;8.518;2022-08-21T14:51:40;34.70;99.90
10453;DHT22;5274;51.992;8.518;2022-08-21T14:54:06;33.80;99.90
10453;DHT22;5274;51.992;8.518;2022-08-21T14:56:33;33.40;99.90
10453;DHT22;5274;51.992;8.518;2022-08-21T14:59:03;35.30;99.90
10453;DHT22;5274;51.992;8.518;2022-08-21T15:01:29;35.10;99.90
10453;DHT22;5274;51.992;8.518;2022-08-21T15:03:57;34.20;99.90
10453;DHT22;5274;51.992;8.518;2022-08-21T15:06:22;35.20;99.90
10453;DHT22;5274;51.992;8.518;2022-08-21T15:08:48;35.50;99.90
10453;DHT22;5274;51.992;8.518;2022-08-21T15:11:20;34.90;99.90
10453;DHT22;5274;51.992;8.518;2022-08-21T15:13:46;34.80;99.90
10453;DHT22;5274;51.992;8.518;2022-08-21T15:16:13;35.70;99.90
10453;DHT22;5274;51.992;8.518;2022-08-21T15:18:39;35.30;99.90
10453;DHT22;5274;51.992;8.518;2022-08-21T15:21:05;34.90;99.90
10453;DHT22;5274;51.992;8.518;2022-08-21T15:23:31;35.30;99.90
10453;DHT22;5274;51.992;8.518;2022-08-21T15:25:56;35.20;99.90
10453;DHT22;5274;51.992;8.518;2022-08-21T15:28:23;34.80;99.90
10453;DHT22;5274;51.992;8.518;2022-08-21T15:30:50;35.60;99.90
10453;DHT22;5274;51.992;8.518;2022-08-21T15:33:16;35.40;99.90
10453;DHT22;5274;51.992;8.518;2022-08-21T15:35:42;35.30;99.90
10453;DHT22;5274;51.992;8.518;2022-08-21T15:38:08;36.50;99.90
10453;DHT22;5274;51.992;8.518;2022-08-21T15:40:35;37.60;99.90
10453;DHT22;5274;51.992;8.518;2022-08-21T15:43:02;36.50;99.90
10453;DHT22;5274;51.992;8.518;2022-08-21T15:45:28;34.90;99.90
10453;DHT22;5274;51.992;8.518;2022-08-21T15:47:55;35.10;99.90
10453;DHT22;5274;51.992;8.518;2022-08-21T15:50:22;35.00;99.90
10453;DHT22;5274;51.992;8.518;2022-08-21T15:52:47;36.30;99.90
10453;DHT22;5274;51.992;8.518;2022-08-21T15:55:13;36.70;99.90
10453;DHT22;5274;51.992;8.518;2022-08-21T15:57:44;37.50;99.90
10453;DHT22;5274;51.992;8.518;2022-08-21T16:00:16;36.10;99.90
10453;DHT22;5274;51.992;8.518;2022-08-21T16:02:44;34.90;99.90
10453;DHT22;5274;51.992;8.518;2022-08-21T16:05:11;32.60;99.90
10453;DHT22;5274;51.992;8.518;2022-08-21T16:07:40;31.60;99.90
10453;DHT22;5274;51.992;8.518;2022-08-21T16:10:06;31.60;99.90
10453;DHT22;5274;51.992;8.518;2022-08-21T16:12:36;33.10;99.90
10453;DHT22;5274;51.992;8.518;2022-08-21T16:15:06;33.80;99.90
10453;DHT22;5274;51.992;8.518;2022-08-21T16:17:34;34.30;99.90
10453;DHT22;5274;51.992;8.518;2022-08-21T16:20:03;34.80;99.90
10453;DHT22;5274;51.992;8.518;2022-08-21T16:22:29;35.60;99.90
10453;DHT22;5274;51.992;8.518;2022-08-21T16:24:55;36.40;99.90
10453;DHT22;5274;51.992;8.518;2022-08-21T16:27:21;36.50;99.90
10453;DHT22;5274;51.992;8.518;2022-08-21T16:29:46;35.30;99.90
10453;DHT22;5274;51.992;8.518;2022-08-21T16:32:13;34.70;99.90
10453;DHT22;5274;51.992;8.518;2022-08-21T16:34:45;34.40;99.90
10453;DHT22;5274;51.992;8.518;2022-08-21T16:37:12;34.20;99.90
10453;DHT22;5274;51.992;8.518;2022-08-21T16:39:38;33.80;99.90
10453;DHT22;5274;51.992;8.518;2022-08-21T16:42:04;31.50;99.90
10453;DHT22;5274;51.992;8.518;2022-08-21T16:44:31;31.20;99.90
10453;DHT22;5274;51.992;8.518;2022-08-21T16:46:57;31.20;99.90
10453;DHT22;5274;51.992;8.518;2022-08-21T16:49:22;31.30;99.90
10453;DHT22;5274;51.992;8.518;2022-08-21T16:51:48;31.10;99.90
10453;DHT22;5274;51.992;8.518;2022-08-21T16:54:13;30.80;99.90